Pagrindinis puslapis
METAR-TAF:

METAR-TAF

Oro uostai :

Talara, Peru

platuma: 04-34S, ilguma: 081-15W, Aukštis: 85 m

Dabartinis oras

Ataskaita buvo paskelbta 3 valandos ir 45 minutes, ne 23:00 UTC
Vėjas 15 kt iš Pietų
Temperatūra 21°C
Drėgmė 88%
Slėgis 1012 hPa
Matomumas 10 km arba daugiau
Mažai debesys ne aukštis 4000 ft

METAR: SPYL 162300Z 18015KT 9999 FEW040 21/19 Q1012 RMK BIRD HAZARD RWY 17/35 PP000

Laikas: 21:45 (02:45 UTC)

Prognozė

Ataskaita buvo paskelbta 3 valandos ir 45 minutes, ne 23:00 UTC
Prognozė galioja nuo 17 metu 00 UTC su 17 metu 24 UTC
Vėjas 15 kt iš Pietų
Išsisklaidę debesys ne aukštis 4000 ft
Nuo 17 metu 1100 UTC
Vėjas 18 kt iš Pietryčių
Matomumas 10 km arba daugiau
Apsiniaukę ne aukštis 4000 ft
Tapsmas
nuo 17 metu 14 UTC su 17 metu 16 UTC
Matomumas 10 km arba daugiau
nėra debesų žemiau 1500 m ir nėra kamuolinių lietaus debesų

TAF: SPYL 162300Z 1700/1724 18015KT SCT040 TX28/1719Z TN18/1711Z FM171100 14018KT 9999 OVC040 BECMG 1714/1716 CAVOK

Orai ataskaitas ir orų prognozės (METAR, TAF).

turimą stotys yra geltonos ir raudonos taškus žemėlapyje.

Perkelti pele per norėdami pamatyti stoties vardą.

Tada spustelėkite, norėdami matyti oro stebėjimo ir prognozės.

Norėdami pakeisti žemėlapį: spustelėkite ant žalios mygtukų su juodo kryžiaus žemyn,; žalią mygtuką su brūkšneliu, jei norite nutolinti; arba žalių rodyklių gretimoms žemėlapius.


METAR-TAF: